Time;durP1;ratioP1;P1;durP2;ratioP2;P2;SDS_P1;SDS_P2;PMS_P1;PMS_P2;Temp;Humidity;BMP_temperature;BMP_pressure;BME280_temperature;BME280_humidity;BME280_pressure;Samples;Min_cycle;Max_cycle;Signal;HPM_P1;HPM_P2
2023/04/28 00:01:11;;;;;;;;;;;11.40;79.20;;;;;;8387189;28;20372;-71
2023/04/28 00:05:13;;;;;;;;;;;11.40;79.60;;;;;;8380060;28;20019;-71
2023/04/28 00:09:15;;;;;;;;;;;11.40;79.60;;;;;;8376521;28;19929;-71
2023/04/28 00:13:16;;;;;;;;;;;11.40;80.00;;;;;;8399736;28;20276;-71
2023/04/28 00:17:18;;;;;;;;;;;11.30;79.60;;;;;;8377235;28;20682;-70
2023/04/28 00:21:19;;;;;;;;;;;11.30;80.20;;;;;;8382824;28;19925;-71
2023/04/28 00:25:21;;;;;;;;;;;11.30;79.80;;;;;;8398213;28;20324;-70
2023/04/28 00:29:23;;;;;;;;;;;11.30;80.00;;;;;;8386190;28;19937;-70
2023/04/28 00:33:24;;;;;;;;;;;11.30;80.20;;;;;;8360516;28;19928;-71
2023/04/28 00:37:26;;;;;;;;;;;11.20;80.20;;;;;;8381525;28;19925;-71
2023/04/28 00:41:28;;;;;;;;;;;11.20;81.20;;;;;;8397004;28;19977;-71
2023/04/28 00:45:29;;;;;;;;;;;11.20;81.40;;;;;;8389998;28;19928;-71
2023/04/28 00:49:32;;;;;;;;;;;11.10;81.60;;;;;;8397907;28;19924;-71
2023/04/28 00:53:34;;;;;;;;;;;11.10;82.10;;;;;;8394245;28;19929;-70
2023/04/28 00:57:36;;;;;;;;;;;11.00;82.70;;;;;;8401002;28;20334;-71
2023/04/28 01:01:38;;;;;;;;;;;11.00;82.80;;;;;;8383514;28;19932;-70
2023/04/28 01:05:39;;;;;;;;;;;11.00;82.60;;;;;;8377746;28;20432;-71
2023/04/28 01:09:42;;;;;;;;;;;11.00;82.50;;;;;;8382954;28;19932;-71
2023/04/28 01:13:44;;;;;;;;;;;10.90;82.30;;;;;;8384292;28;19928;-71
2023/04/28 01:17:46;;;;;;;;;;;10.90;82.20;;;;;;8395661;28;19932;-71
2023/04/28 01:21:48;;;;;;;;;;;10.90;81.80;;;;;;8398894;28;20036;-71
2023/04/28 01:25:50;;;;;;;;;;;10.90;82.60;;;;;;8394672;28;19979;-71
2023/04/28 01:29:51;;;;;;;;;;;10.90;81.80;;;;;;8404811;28;19963;-70
2023/04/28 01:33:53;;;;;;;;;;;10.90;82.10;;;;;;8400704;28;19977;-71
2023/04/28 01:37:55;;;;;;;;;;;10.90;82.50;;;;;;8391137;28;20419;-71
2023/04/28 01:41:56;;;;;;;;;;;10.90;82.20;;;;;;8394570;28;20359;-70
2023/04/28 01:45:58;;;;;;;;;;;10.90;82.50;;;;;;8399346;28;19932;-71
2023/04/28 01:50:00;;;;;;;;;;;10.90;82.00;;;;;;8395497;28;19969;-71
2023/04/28 01:54:02;;;;;;;;;;;10.80;82.50;;;;;;8382090;28;20007;-70
2023/04/28 01:58:03;;;;;;;;;;;10.80;82.50;;;;;;8401240;28;19931;-70
2023/04/28 02:02:05;;;;;;;;;;;10.80;82.60;;;;;;8385405;28;20082;-71
2023/04/28 02:06:07;;;;;;;;;;;10.80;82.70;;;;;;8374386;28;19935;-70
2023/04/28 02:10:08;;;;;;;;;;;10.80;82.20;;;;;;8388788;28;20284;-70
2023/04/28 02:14:10;;;;;;;;;;;10.80;82.40;;;;;;8375462;28;19932;-70
2023/04/28 02:18:12;;;;;;;;;;;10.80;82.90;;;;;;8395785;28;19975;-70
2023/04/28 02:22:13;;;;;;;;;;;10.80;83.30;;;;;;8405150;28;19966;-70
2023/04/28 02:26:16;;;;;;;;;;;10.80;82.60;;;;;;8407123;28;20417;-71
2023/04/28 02:30:17;;;;;;;;;;;10.70;82.10;;;;;;8411232;28;19924;-71
2023/04/28 02:34:19;;;;;;;;;;;10.70;82.80;;;;;;8396482;28;20383;-70
2023/04/28 02:38:20;;;;;;;;;;;10.70;83.10;;;;;;8392360;28;19924;-71
2023/04/28 02:42:22;;;;;;;;;;;10.70;83.90;;;;;;8394767;28;20339;-70
2023/04/28 02:46:24;;;;;;;;;;;10.60;85.20;;;;;;8397894;28;19925;-70
2023/04/28 02:50:25;;;;;;;;;;;10.60;85.10;;;;;;8399282;28;19935;-70
2023/04/28 02:54:27;;;;;;;;;;;10.50;86.50;;;;;;8388133;28;19931;-71
2023/04/28 02:58:29;;;;;;;;;;;10.50;84.80;;;;;;8399181;28;19931;-70
2023/04/28 03:02:30;;;;;;;;;;;10.50;84.50;;;;;;8394397;28;19925;-70
2023/04/28 03:06:32;;;;;;;;;;;10.50;86.30;;;;;;8396632;28;20384;-70
2023/04/28 03:10:34;;;;;;;;;;;10.40;86.30;;;;;;8384401;28;19932;-71
2023/04/28 03:14:35;;;;;;;;;;;10.40;85.10;;;;;;8398729;28;19935;-70
2023/04/28 03:18:37;;;;;;;;;;;10.40;84.90;;;;;;8383379;28;20534;-71
2023/04/28 03:22:39;;;;;;;;;;;10.40;84.70;;;;;;8360059;28;19932;-70
2023/04/28 03:26:40;;;;;;;;;;;10.40;85.60;;;;;;8396253;28;19984;-70
2023/04/28 03:30:42;;;;;;;;;;;10.40;85.60;;;;;;8388545;28;19964;-70
2023/04/28 03:34:43;;;;;;;;;;;10.40;85.30;;;;;;8390558;28;19939;-70
2023/04/28 03:38:45;;;;;;;;;;;10.40;85.40;;;;;;8411208;28;19928;-70
2023/04/28 03:42:47;;;;;;;;;;;10.40;85.00;;;;;;8381111;28;19967;-70
2023/04/28 03:46:49;;;;;;;;;;;10.40;84.90;;;;;;8393946;28;19946;-70
2023/04/28 03:50:50;;;;;;;;;;;10.40;85.80;;;;;;8390088;28;20051;-70
2023/04/28 03:54:52;;;;;;;;;;;10.40;85.80;;;;;;8382702;28;19929;-71
2023/04/28 03:58:53;;;;;;;;;;;10.40;85.50;;;;;;8372237;28;20443;-71
2023/04/28 04:02:55;;;;;;;;;;;10.40;86.00;;;;;;8379930;28;19939;-70
2023/04/28 04:06:57;;;;;;;;;;;10.40;87.30;;;;;;8348456;28;19924;-70
2023/04/28 04:10:59;;;;;;;;;;;10.40;86.40;;;;;;8379699;28;19931;-71
2023/04/28 04:15:01;;;;;;;;;;;10.30;86.20;;;;;;8376216;28;20384;-71
2023/04/28 04:19:03;;;;;;;;;;;10.30;85.60;;;;;;8384636;28;20391;-71
2023/04/28 04:23:04;;;;;;;;;;;10.30;86.90;;;;;;8386449;28;19924;-71
2023/04/28 04:27:06;;;;;;;;;;;10.40;86.60;;;;;;8379075;28;19929;-70
2023/04/28 04:31:07;;;;;;;;;;;10.30;86.30;;;;;;8371632;28;19924;-71
2023/04/28 04:35:09;;;;;;;;;;;10.40;87.10;;;;;;8395967;28;19943;-71
2023/04/28 04:39:11;;;;;;;;;;;10.40;87.10;;;;;;8385501;28;20363;-71
2023/04/28 04:43:13;;;;;;;;;;;10.40;87.40;;;;;;8381443;28;19925;-71
2023/04/28 04:47:14;;;;;;;;;;;10.40;87.10;;;;;;8378103;28;20357;-70
2023/04/28 04:51:16;;;;;;;;;;;10.40;87.40;;;;;;8372614;28;19987;-70
2023/04/28 04:55:18;;;;;;;;;;;10.40;88.20;;;;;;8353176;28;19933;-71
2023/04/28 04:59:19;;;;;;;;;;;10.40;89.40;;;;;;8398025;28;19933;-70
2023/04/28 05:03:21;;;;;;;;;;;10.40;88.20;;;;;;8359186;28;19999;-71
2023/04/28 05:07:25;;;;;;;;;;;10.40;87.80;;;;;;8354423;28;20434;-71
2023/04/28 05:11:26;;;;;;;;;;;10.40;90.10;;;;;;8358693;28;20032;-70
2023/04/28 05:15:28;;;;;;;;;;;10.40;90.00;;;;;;8362154;28;19986;-70
2023/04/28 05:19:30;;;;;;;;;;;10.40;90.50;;;;;;8365604;28;19932;-70
2023/04/28 05:23:32;;;;;;;;;;;10.40;90.30;;;;;;8355224;28;20434;-70
2023/04/28 05:27:36;;;;;;;;;;;10.40;91.20;;;;;;8371914;28;20295;-70
2023/04/28 05:31:38;;;;;;;;;;;10.40;90.10;;;;;;8396802;28;19970;-71
2023/04/28 05:35:39;;;;;;;;;;;10.40;91.00;;;;;;8380528;28;20527;-71
2023/04/28 05:39:41;;;;;;;;;;;10.40;91.70;;;;;;8396950;28;19971;-71
2023/04/28 05:43:43;;;;;;;;;;;10.40;92.60;;;;;;8381809;28;19924;-70
2023/04/28 05:47:44;;;;;;;;;;;10.30;93.20;;;;;;8384049;28;20244;-70
2023/04/28 05:51:46;;;;;;;;;;;10.30;93.10;;;;;;8369027;28;19932;-70
2023/04/28 05:55:48;;;;;;;;;;;10.30;93.40;;;;;;8367822;28;19956;-70
2023/04/28 05:59:49;;;;;;;;;;;10.30;93.00;;;;;;8385921;28;19975;-70
2023/04/28 06:03:52;;;;;;;;;;;10.30;92.70;;;;;;8374612;28;20376;-70
2023/04/28 06:07:54;;;;;;;;;;;10.30;93.20;;;;;;8378424;28;20435;-71
2023/04/28 06:11:56;;;;;;;;;;;10.30;93.50;;;;;;8391362;28;19963;-70
2023/04/28 06:15:58;;;;;;;;;;;10.30;94.00;;;;;;8373005;28;20011;-70
2023/04/28 06:20:00;;;;;;;;;;;10.40;94.90;;;;;;8393818;28;19968;-71
2023/04/28 06:24:01;;;;;;;;;;;10.50;95.60;;;;;;8390453;28;19987;-70
2023/04/28 06:28:03;;;;;;;;;;;10.60;95.10;;;;;;8372767;28;20010;-70
2023/04/28 06:32:05;;;;;;;;;;;10.60;96.10;;;;;;8365661;28;20035;-70
2023/04/28 06:36:06;;;;;;;;;;;10.60;97.00;;;;;;8388454;28;19939;-70
2023/04/28 06:40:09;;;;;;;;;;;10.60;96.60;;;;;;8408908;28;20391;-70
2023/04/28 06:44:10;;;;;;;;;;;10.70;98.00;;;;;;8389974;28;19933;-70
2023/04/28 06:48:12;;;;;;;;;;;10.70;98.40;;;;;;8396042;28;19975;-70
2023/04/28 06:52:14;;;;;;;;;;;10.80;98.50;;;;;;8397150;28;20495;-70
2023/04/28 06:56:16;;;;;;;;;;;10.80;96.00;;;;;;8402770;28;20368;-70
2023/04/28 07:00:17;;;;;;;;;;;10.80;97.70;;;;;;8398672;28;20011;-70
2023/04/28 07:04:19;;;;;;;;;;;10.80;99.90;;;;;;8401915;28;20750;-71
2023/04/28 07:08:21;;;;;;;;;;;10.80;99.10;;;;;;8391857;28;19974;-71
2023/04/28 07:12:23;;;;;;;;;;;10.90;98.90;;;;;;8409608;28;19960;-70
2023/04/28 07:16:25;;;;;;;;;;;11.00;99.90;;;;;;8391816;28;20342;-70
2023/04/28 07:20:26;;;;;;;;;;;11.10;99.90;;;;;;8375097;28;19929;-70
2023/04/28 07:24:29;;;;;;;;;;;11.10;99.10;;;;;;8378885;28;19924;-70
2023/04/28 07:28:31;;;;;;;;;;;11.20;98.50;;;;;;8383685;28;19932;-70
2023/04/28 07:32:32;;;;;;;;;;;11.40;99.90;;;;;;8394797;28;19924;-70
2023/04/28 07:36:35;;;;;;;;;;;11.60;99.90;;;;;;8399452;28;19925;-70
2023/04/28 07:40:36;;;;;;;;;;;11.90;99.90;;;;;;8403064;28;20115;-70
2023/04/28 07:44:38;;;;;;;;;;;12.10;99.90;;;;;;8403182;28;19924;-70
2023/04/28 07:48:40;;;;;;;;;;;12.20;99.90;;;;;;8398187;28;19924;-70
2023/04/28 07:52:42;;;;;;;;;;;12.30;99.90;;;;;;8395273;28;20007;-70
2023/04/28 07:56:44;;;;;;;;;;;12.40;99.90;;;;;;8386099;28;19924;-70
2023/04/28 08:00:46;;;;;;;;;;;12.50;99.90;;;;;;8391806;28;19928;-70
2023/04/28 08:04:47;;;;;;;;;;;12.70;99.90;;;;;;8398249;28;19935;-70
2023/04/28 08:08:49;;;;;;;;;;;12.60;99.90;;;;;;8406694;28;20295;-70
2023/04/28 08:12:51;;;;;;;;;;;12.60;99.90;;;;;;8413619;28;19931;-71
2023/04/28 08:16:53;;;;;;;;;;;12.60;99.90;;;;;;8404165;28;20387;-70
2023/04/28 08:20:55;;;;;;;;;;;12.50;99.90;;;;;;8402080;28;20339;-70
2023/04/28 08:24:56;;;;;;;;;;;12.40;99.90;;;;;;8393679;28;19930;-71
2023/04/28 08:28:58;;;;;;;;;;;12.50;99.90;;;;;;8389291;28;19934;-70
2023/04/28 08:33:00;;;;;;;;;;;12.50;99.90;;;;;;8388797;28;19928;-71
2023/04/28 08:37:02;;;;;;;;;;;12.60;99.90;;;;;;8386668;28;20442;-71
2023/04/28 08:41:03;;;;;;;;;;;12.70;99.90;;;;;;8397744;28;20249;-71
2023/04/28 08:45:05;;;;;;;;;;;12.90;99.90;;;;;;8403883;28;19929;-71
2023/04/28 08:49:11;;;;;;;;;;;13.00;99.90;;;;;;8409531;28;20310;-71
2023/04/28 08:53:13;;;;;;;;;;;13.10;99.90;;;;;;8401573;28;19931;-71
2023/04/28 08:57:15;;;;;;;;;;;13.20;99.90;;;;;;8402118;28;19973;-71
2023/04/28 09:01:17;;;;;;;;;;;13.20;99.90;;;;;;8410031;28;19951;-71
2023/04/28 09:05:18;;;;;;;;;;;13.30;99.90;;;;;;8401145;28;19948;-71
2023/04/28 09:09:21;;;;;;;;;;;13.20;99.90;;;;;;8382968;28;19925;-71
2023/04/28 09:13:26;;;;;;;;;;;13.10;99.90;;;;;;8395970;28;19975;-70
2023/04/28 09:17:27;;;;;;;;;;;13.10;99.90;;;;;;8395911;28;19928;-70
2023/04/28 09:21:30;;;;;;;;;;;13.00;99.90;;;;;;8395314;28;19944;-70
2023/04/28 09:25:32;;;;;;;;;;;13.00;99.90;;;;;;8368574;28;19935;-70
2023/04/28 09:29:34;;;;;;;;;;;13.10;99.90;;;;;;8388494;28;20280;-70
2023/04/28 09:33:36;;;;;;;;;;;13.10;99.90;;;;;;8392167;28;19978;-71
2023/04/28 09:37:37;;;;;;;;;;;13.20;99.90;;;;;;8405995;28;20399;-71
2023/04/28 09:41:40;;;;;;;;;;;13.20;99.90;;;;;;8414425;28;19928;-71
2023/04/28 09:45:44;;;;;;;;;;;13.30;99.90;;;;;;8388116;28;19935;-71
2023/04/28 09:49:53;;;;;;;;;;;13.30;99.90;;;;;;8406420;28;20372;-71
2023/04/28 09:53:58;;;;;;;;;;;13.30;99.90;;;;;;8399613;28;19925;-71
2023/04/28 09:58:02;;;;;;;;;;;13.30;99.90;;;;;;8372791;28;20265;-71
2023/04/28 10:02:04;;;;;;;;;;;13.40;99.90;;;;;;8385287;28;19928;-71
2023/04/28 10:06:27;;;;;;;;;;;13.40;99.90;;;;;;8383750;28;20016;-71
2023/04/28 10:10:29;;;;;;;;;;;13.50;99.90;;;;;;8406002;28;19928;-71
2023/04/28 10:14:31;;;;;;;;;;;13.50;99.90;;;;;;8416407;28;19927;-71
2023/04/28 10:18:34;;;;;;;;;;;13.50;99.90;;;;;;8402862;28;19930;-71
2023/04/28 10:22:42;;;;;;;;;;;13.50;99.90;;;;;;8391576;28;19979;-71
2023/04/28 10:26:52;;;;;;;;;;;13.50;99.90;;;;;;8399873;28;20406;-71
2023/04/28 10:31:07;;;;;;;;;;;13.50;99.90;;;;;;8394950;28;19928;-71
2023/04/28 10:35:28;;;;;;;;;;;13.40;99.90;;;;;;8406174;28;19924;-71
2023/04/28 10:39:30;;;;;;;;;;;13.40;99.90;;;;;;8411023;28;19996;-71
2023/04/28 10:43:32;;;;;;;;;;;13.30;99.90;;;;;;8399424;28;19928;-71
2023/04/28 10:47:54;;;;;;;;;;;13.30;99.90;;;;;;8382455;28;19932;-71
2023/04/28 10:51:56;;;;;;;;;;;13.30;99.90;;;;;;8414998;28;19924;-71
2023/04/28 10:56:04;;;;;;;;;;;13.30;99.90;;;;;;8410245;28;19985;-71
2023/04/28 11:00:24;;;;;;;;;;;13.30;99.90;;;;;;8388447;28;19939;-71
2023/04/28 11:04:26;;;;;;;;;;;13.30;99.90;;;;;;8386159;28;19929;-71
2023/04/28 11:08:32;;;;;;;;;;;13.30;99.90;;;;;;8405125;28;19928;-71
2023/04/28 11:12:33;;;;;;;;;;;13.30;99.90;;;;;;8379980;28;19928;-71
2023/04/28 11:16:46;;;;;;;;;;;13.30;99.90;;;;;;8406363;28;19979;-71
2023/04/28 11:20:54;;;;;;;;;;;13.40;99.90;;;;;;8398235;28;19928;-71
2023/04/28 11:24:56;;;;;;;;;;;13.50;99.90;;;;;;8392268;28;19925;-71
2023/04/28 11:28:58;;;;;;;;;;;13.80;99.90;;;;;;8407775;28;19929;-71
2023/04/28 11:32:59;;;;;;;;;;;14.10;99.90;;;;;;8402760;28;19924;-71
2023/04/28 11:37:01;;;;;;;;;;;14.30;99.90;;;;;;8382675;28;19970;-71
2023/04/28 11:41:03;;;;;;;;;;;14.50;99.90;;;;;;8376321;28;19929;-70
2023/04/28 11:45:05;;;;;;;;;;;14.60;99.90;;;;;;8359643;28;20304;-70
2023/04/28 11:49:07;;;;;;;;;;;14.60;99.90;;;;;;8362896;28;19925;-70
2023/04/28 11:53:09;;;;;;;;;;;14.50;99.90;;;;;;8359352;28;19979;-70
2023/04/28 11:57:17;;;;;;;;;;;14.30;99.90;;;;;;8358949;28;20015;-70
2023/04/28 12:01:19;;;;;;;;;;;14.30;99.90;;;;;;8358843;28;19928;-70
2023/04/28 12:05:21;;;;;;;;;;;14.40;99.90;;;;;;8365567;28;20427;-71
2023/04/28 12:09:24;;;;;;;;;;;14.60;99.90;;;;;;8363063;28;19979;-70
2023/04/28 12:13:26;;;;;;;;;;;14.70;99.90;;;;;;8357278;28;19929;-70
2023/04/28 12:17:30;;;;;;;;;;;14.90;99.90;;;;;;8378105;28;20019;-71
2023/04/28 12:21:32;;;;;;;;;;;15.00;99.90;;;;;;8362985;28;19929;-71
2023/04/28 12:25:42;;;;;;;;;;;15.00;99.90;;;;;;8359385;28;19933;-71
2023/04/28 12:29:45;;;;;;;;;;;15.00;99.90;;;;;;8360306;28;19932;-70
2023/04/28 12:33:47;;;;;;;;;;;14.90;99.90;;;;;;8355932;28;20376;-71
2023/04/28 12:37:48;;;;;;;;;;;14.80;99.90;;;;;;8362057;28;19962;-70
2023/04/28 12:41:50;;;;;;;;;;;14.70;99.90;;;;;;8376183;28;19935;-71
2023/04/28 12:45:53;;;;;;;;;;;14.80;99.90;;;;;;8356876;28;19931;-71
2023/04/28 12:49:54;;;;;;;;;;;14.80;99.90;;;;;;8342432;28;19935;-70
2023/04/28 12:53:56;;;;;;;;;;;14.70;99.90;;;;;;8358751;28;19925;-70
2023/04/28 12:57:58;;;;;;;;;;;14.60;99.90;;;;;;8364217;28;20020;-71
2023/04/28 13:01:59;;;;;;;;;;;14.70;99.90;;;;;;8358002;28;19925;-71
2023/04/28 13:06:01;;;;;;;;;;;14.70;99.90;;;;;;8358303;28;19924;-70
2023/04/28 13:10:03;;;;;;;;;;;14.80;99.90;;;;;;8359923;28;20312;-71
2023/04/28 13:19:09;;;;;;;;;;;14.80;99.90;;;;;;8356948;28;20353;-71
2023/04/28 13:23:11;;;;;;;;;;;14.80;99.90;;;;;;8359773;28;19925;-71
2023/04/28 13:27:12;;;;;;;;;;;14.90;99.90;;;;;;8360144;28;19964;-71
2023/04/28 13:31:14;;;;;;;;;;;14.90;99.90;;;;;;8342635;28;20308;-70
2023/04/28 13:35:16;;;;;;;;;;;14.80;99.90;;;;;;8360407;28;19971;-70
2023/04/28 13:39:20;;;;;;;;;;;14.80;99.90;;;;;;8359908;28;19929;-71
2023/04/28 13:43:22;;;;;;;;;;;14.70;99.90;;;;;;8371216;28;19954;-71
2023/04/28 13:47:24;;;;;;;;;;;14.70;99.90;;;;;;8356923;28;19925;-71
2023/04/28 13:51:27;;;;;;;;;;;14.60;99.90;;;;;;8356827;28;19928;-71
2023/04/28 13:55:29;;;;;;;;;;;14.50;99.90;;;;;;8368217;28;20015;-70
2023/04/28 13:59:30;;;;;;;;;;;14.30;99.90;;;;;;8362926;28;19939;-71
2023/04/28 14:03:33;;;;;;;;;;;14.20;99.90;;;;;;8353101;28;19925;-71
2023/04/28 14:07:35;;;;;;;;;;;14.30;99.90;;;;;;8359604;28;20052;-71
2023/04/28 14:11:36;;;;;;;;;;;14.20;99.90;;;;;;8341113;28;19933;-70
2023/04/28 14:15:38;;;;;;;;;;;14.20;99.90;;;;;;8358380;28;19935;-71
2023/04/28 14:19:51;;;;;;;;;;;14.20;99.90;;;;;;8359592;28;19925;-70
2023/04/28 14:23:55;;;;;;;;;;;14.20;99.90;;;;;;8359419;28;20225;-71
2023/04/28 14:27:56;;;;;;;;;;;14.20;99.90;;;;;;8359550;28;19928;-71
2023/04/28 14:31:58;;;;;;;;;;;14.20;99.90;;;;;;8365669;28;19931;-71
2023/04/28 14:36:01;;;;;;;;;;;14.30;99.90;;;;;;8373033;28;21091;-71
2023/04/28 14:40:04;;;;;;;;;;;14.20;99.90;;;;;;8360179;28;19929;-72
2023/04/28 14:44:07;;;;;;;;;;;14.20;99.90;;;;;;8355989;28;19932;-70
2023/04/28 14:48:09;;;;;;;;;;;14.20;99.90;;;;;;8360647;28;20012;-70
2023/04/28 14:52:11;;;;;;;;;;;14.10;99.90;;;;;;8347051;28;20015;-70
2023/04/28 14:56:13;;;;;;;;;;;14.10;99.90;;;;;;8362127;28;19925;-71
2023/04/28 15:00:19;;;;;;;;;;;14.10;99.90;;;;;;8359114;28;19940;-71
2023/04/28 15:04:27;;;;;;;;;;;14.10;99.90;;;;;;8372023;28;20019;-70
2023/04/28 15:08:29;;;;;;;;;;;14.10;99.90;;;;;;8356379;28;20314;-71
2023/04/28 15:12:31;;;;;;;;;;;14.10;99.90;;;;;;8354605;28;20398;-71
2023/04/28 15:16:33;;;;;;;;;;;14.00;99.90;;;;;;8359276;28;20309;-71
2023/04/28 15:20:37;;;;;;;;;;;14.00;99.90;;;;;;8373969;28;19932;-71
2023/04/28 15:24:38;;;;;;;;;;;14.00;99.90;;;;;;8363396;28;19967;-71
2023/04/28 15:28:40;;;;;;;;;;;13.90;99.90;;;;;;8357903;28;19929;-71
2023/04/28 15:32:42;;;;;;;;;;;13.90;99.90;;;;;;8361981;28;20023;-71
2023/04/28 15:36:44;;;;;;;;;;;13.90;99.90;;;;;;8350982;28;19940;-71
2023/04/28 15:40:46;;;;;;;;;;;13.90;99.90;;;;;;8354881;28;20365;-71
2023/04/28 15:44:47;;;;;;;;;;;13.90;99.90;;;;;;8352091;28;19928;-71
2023/04/28 15:48:49;;;;;;;;;;;13.80;99.90;;;;;;8343994;28;19972;-71
2023/04/28 15:52:51;;;;;;;;;;;13.80;99.90;;;;;;8355749;28;19931;-71
2023/04/28 15:56:53;;;;;;;;;;;13.80;99.90;;;;;;8337740;28;19932;-71
2023/04/28 16:00:54;;;;;;;;;;;13.70;99.90;;;;;;8336568;28;20023;-71
2023/04/28 16:04:56;;;;;;;;;;;13.70;99.90;;;;;;8355313;28;20023;-70
2023/04/28 16:08:58;;;;;;;;;;;13.70;99.90;;;;;;8352920;28;19936;-71
2023/04/28 16:13:00;;;;;;;;;;;13.70;99.90;;;;;;8371882;28;19932;-71
2023/04/28 16:17:01;;;;;;;;;;;13.80;99.90;;;;;;8353222;28;19937;-71
2023/04/28 16:21:03;;;;;;;;;;;13.80;99.90;;;;;;8356699;28;20388;-70
2023/04/28 16:25:05;;;;;;;;;;;13.80;99.90;;;;;;8355004;28;19929;-70
2023/04/28 16:29:07;;;;;;;;;;;13.70;99.90;;;;;;8351340;28;19925;-70
2023/04/28 16:33:09;;;;;;;;;;;13.70;99.90;;;;;;8354842;28;19946;-71
2023/04/28 16:37:11;;;;;;;;;;;13.70;99.90;;;;;;8353111;28;19925;-71
2023/04/28 16:41:12;;;;;;;;;;;13.70;99.90;;;;;;8351332;28;19948;-71
2023/04/28 16:45:14;;;;;;;;;;;13.70;99.90;;;;;;8372910;28;19982;-71
2023/04/28 16:49:16;;;;;;;;;;;13.70;99.90;;;;;;8364472;28;19958;-71
2023/04/28 16:53:18;;;;;;;;;;;13.70;99.90;;;;;;8352741;28;20059;-70
2023/04/28 16:57:19;;;;;;;;;;;13.70;99.90;;;;;;8354743;28;20031;-71
2023/04/28 17:01:21;;;;;;;;;;;13.60;99.90;;;;;;8365969;28;19929;-71
2023/04/28 17:05:22;;;;;;;;;;;13.60;99.90;;;;;;8351364;28;19928;-71
2023/04/28 17:09:26;;;;;;;;;;;13.60;99.90;;;;;;8339783;28;19968;-71
2023/04/28 17:13:27;;;;;;;;;;;13.60;99.90;;;;;;8354390;28;19936;-71
2023/04/28 17:17:29;;;;;;;;;;;13.60;99.90;;;;;;8357304;28;19924;-71
2023/04/28 17:21:32;;;;;;;;;;;13.60;99.90;;;;;;8368191;28;20411;-71
2023/04/28 17:25:37;;;;;;;;;;;13.50;99.90;;;;;;8349952;28;19975;-71
2023/04/28 17:29:39;;;;;;;;;;;13.50;99.90;;;;;;8366877;28;19940;-71
2023/04/28 17:33:41;;;;;;;;;;;13.50;99.90;;;;;;8358582;28;19932;-71
2023/04/28 17:37:42;;;;;;;;;;;13.50;99.90;;;;;;8356332;28;19933;-71
2023/04/28 17:41:45;;;;;;;;;;;13.40;99.90;;;;;;8367816;28;20011;-71
2023/04/28 17:45:47;;;;;;;;;;;13.40;99.90;;;;;;8365648;28;20884;-71
2023/04/28 17:49:48;;;;;;;;;;;13.40;99.90;;;;;;8352043;28;19935;-71
2023/04/28 17:53:50;;;;;;;;;;;13.40;99.90;;;;;;8363467;28;19928;-71
2023/04/28 17:57:52;;;;;;;;;;;13.40;99.90;;;;;;8361821;28;19924;-71
2023/04/28 18:01:55;;;;;;;;;;;13.30;99.90;;;;;;8358768;28;19935;-71
2023/04/28 18:05:56;;;;;;;;;;;13.30;99.90;;;;;;8341117;28;20043;-71
2023/04/28 18:09:58;;;;;;;;;;;13.20;99.90;;;;;;8364125;28;20668;-71
2023/04/28 18:14:00;;;;;;;;;;;13.10;99.90;;;;;;8357426;28;19932;-71
2023/04/28 18:18:01;;;;;;;;;;;13.10;99.90;;;;;;8370413;28;19925;-71
2023/04/28 18:22:03;;;;;;;;;;;13.00;99.90;;;;;;8366538;28;20452;-71
2023/04/28 18:26:04;;;;;;;;;;;12.90;99.90;;;;;;8373580;28;19932;-71
2023/04/28 18:30:06;;;;;;;;;;;12.80;99.90;;;;;;8362276;28;19971;-70
2023/04/28 18:34:08;;;;;;;;;;;12.80;99.90;;;;;;8359097;28;19924;-70
2023/04/28 18:38:10;;;;;;;;;;;12.70;99.90;;;;;;8374198;28;19940;-71
2023/04/28 18:42:12;;;;;;;;;;;12.60;99.90;;;;;;8358161;28;19991;-70
2023/04/28 18:46:13;;;;;;;;;;;12.60;99.90;;;;;;8364409;28;19933;-71
2023/04/28 18:50:15;;;;;;;;;;;12.50;99.90;;;;;;8362714;28;19928;-71
2023/04/28 18:54:17;;;;;;;;;;;12.50;99.90;;;;;;8379299;28;19932;-71
2023/04/28 18:58:19;;;;;;;;;;;12.40;99.90;;;;;;8359962;28;20014;-70
2023/04/28 19:02:20;;;;;;;;;;;12.40;99.90;;;;;;8360954;28;20342;-70
2023/04/28 19:06:22;;;;;;;;;;;12.40;99.90;;;;;;8357178;28;19932;-71
2023/04/28 19:10:24;;;;;;;;;;;12.30;99.90;;;;;;8360504;28;20391;-70
2023/04/28 19:14:25;;;;;;;;;;;12.30;99.90;;;;;;8353952;28;19924;-70
2023/04/28 19:18:28;;;;;;;;;;;12.20;99.90;;;;;;8358332;28;20007;-71
2023/04/28 19:22:30;;;;;;;;;;;12.20;99.90;;;;;;8355851;28;19973;-70
2023/04/28 19:26:32;;;;;;;;;;;12.20;99.90;;;;;;8366497;28;19968;-71
2023/04/28 19:30:33;;;;;;;;;;;12.20;99.90;;;;;;8363751;28;19982;-70
2023/04/28 19:34:35;;;;;;;;;;;12.20;99.90;;;;;;8376014;28;19971;-71
2023/04/28 19:38:39;;;;;;;;;;;12.20;99.90;;;;;;8361680;28;19928;-71
2023/04/28 19:42:40;;;;;;;;;;;12.20;99.90;;;;;;8359431;28;19995;-70
2023/04/28 19:46:42;;;;;;;;;;;12.20;99.90;;;;;;8364758;28;20023;-71
2023/04/28 19:50:46;;;;;;;;;;;12.10;99.90;;;;;;8361658;28;19964;-70
2023/04/28 19:54:48;;;;;;;;;;;12.10;99.90;;;;;;8360152;28;19929;-71
2023/04/28 19:58:49;;;;;;;;;;;12.10;99.90;;;;;;8362709;28;19928;-70
2023/04/28 20:02:51;;;;;;;;;;;12.00;99.90;;;;;;8363542;28;19924;-70
2023/04/28 20:06:53;;;;;;;;;;;12.00;99.90;;;;;;8379647;28;19925;-70
2023/04/28 20:10:54;;;;;;;;;;;12.00;99.90;;;;;;8363306;28;19924;-71
2023/04/28 20:14:56;;;;;;;;;;;12.00;99.90;;;;;;8376645;28;19929;-70
2023/04/28 20:18:58;;;;;;;;;;;11.90;99.90;;;;;;8357509;28;19968;-71
2023/04/28 20:23:00;;;;;;;;;;;11.90;99.90;;;;;;8360228;28;19925;-71
2023/04/28 20:27:02;;;;;;;;;;;11.90;99.90;;;;;;8363021;28;19979;-70
2023/04/28 20:31:07;;;;;;;;;;;11.90;99.90;;;;;;8359459;28;19968;-71
2023/04/28 20:35:09;;;;;;;;;;;11.90;99.90;;;;;;8375160;28;19928;-71
2023/04/28 20:39:11;;;;;;;;;;;11.80;99.90;;;;;;8358971;28;20360;-70
2023/04/28 20:43:12;;;;;;;;;;;11.80;99.90;;;;;;8356553;28;19925;-70
2023/04/28 20:47:14;;;;;;;;;;;11.80;99.90;;;;;;8363628;28;19978;-70
2023/04/28 20:51:16;;;;;;;;;;;11.70;99.90;;;;;;8345976;28;19925;-71
2023/04/28 20:55:17;;;;;;;;;;;11.60;99.90;;;;;;8352370;28;20376;-71
2023/04/28 20:59:19;;;;;;;;;;;11.60;99.90;;;;;;8354948;28;19925;-70
2023/04/28 21:03:22;;;;;;;;;;;11.60;99.90;;;;;;8388406;28;19932;-70
2023/04/28 21:07:24;;;;;;;;;;;11.50;99.90;;;;;;8376877;28;20024;-71
2023/04/28 21:11:26;;;;;;;;;;;11.50;99.90;;;;;;8387230;28;19932;-71
2023/04/28 21:15:27;;;;;;;;;;;11.50;99.90;;;;;;8385445;28;20300;-70
2023/04/28 21:19:29;;;;;;;;;;;11.40;99.90;;;;;;8375194;28;19947;-70
2023/04/28 21:23:31;;;;;;;;;;;11.30;99.90;;;;;;8401053;28;19936;-71
2023/04/28 21:27:32;;;;;;;;;;;11.30;99.90;;;;;;8397795;28;20002;-70
2023/04/28 21:31:34;;;;;;;;;;;11.30;99.90;;;;;;8397312;28;19928;-70
2023/04/28 21:35:36;;;;;;;;;;;11.30;99.90;;;;;;8403708;28;19947;-70
2023/04/28 21:39:37;;;;;;;;;;;11.20;99.90;;;;;;8378531;28;19924;-70
2023/04/28 21:43:39;;;;;;;;;;;11.20;99.90;;;;;;8386010;28;19934;-70
2023/04/28 21:47:41;;;;;;;;;;;11.20;99.90;;;;;;8398586;28;19928;-71
2023/04/28 21:51:44;;;;;;;;;;;11.10;99.90;;;;;;8393234;28;19925;-71
2023/04/28 21:55:46;;;;;;;;;;;11.10;99.90;;;;;;8393789;28;19932;-70
2023/04/28 21:59:48;;;;;;;;;;;11.10;99.90;;;;;;8380496;28;19925;-70
2023/04/28 22:03:50;;;;;;;;;;;11.10;99.90;;;;;;8383820;28;19931;-70
2023/04/28 22:07:52;;;;;;;;;;;11.10;99.90;;;;;;8386271;28;19928;-70
2023/04/28 22:11:54;;;;;;;;;;;11.00;99.90;;;;;;8393632;28;20325;-70
2023/04/28 22:15:56;;;;;;;;;;;11.00;99.90;;;;;;8402079;28;20371;-70
2023/04/28 22:19:57;;;;;;;;;;;11.00;99.90;;;;;;8401685;28;20368;-70
2023/04/28 22:23:59;;;;;;;;;;;11.00;99.90;;;;;;8381924;28;19924;-70
2023/04/28 22:28:00;;;;;;;;;;;10.90;99.90;;;;;;8359529;28;20431;-70
2023/04/28 22:32:03;;;;;;;;;;;10.90;99.90;;;;;;8381100;28;19936;-70
2023/04/28 22:36:05;;;;;;;;;;;10.80;99.90;;;;;;8370585;28;20032;-70
2023/04/28 22:40:07;;;;;;;;;;;10.80;99.90;;;;;;8384851;28;19931;-70
2023/04/28 22:44:09;;;;;;;;;;;10.80;99.90;;;;;;8399477;28;19947;-70
2023/04/28 22:48:12;;;;;;;;;;;10.80;99.90;;;;;;8395277;28;19935;-70
2023/04/28 22:52:14;;;;;;;;;;;10.70;99.90;;;;;;8396036;28;19931;-70
2023/04/28 22:56:15;;;;;;;;;;;10.70;99.90;;;;;;8401426;28;19956;-70
2023/04/28 23:00:17;;;;;;;;;;;10.70;99.90;;;;;;8404377;28;19963;-70
2023/04/28 23:04:19;;;;;;;;;;;10.70;99.90;;;;;;8398532;28;19928;-70
2023/04/28 23:08:22;;;;;;;;;;;10.70;99.90;;;;;;8387830;28;20402;-70
2023/04/28 23:12:23;;;;;;;;;;;10.70;99.90;;;;;;8401478;28;19930;-71
2023/04/28 23:16:25;;;;;;;;;;;10.60;99.90;;;;;;8404678;28;19967;-71
2023/04/28 23:20:27;;;;;;;;;;;10.60;99.90;;;;;;8391688;28;19924;-70
2023/04/28 23:24:28;;;;;;;;;;;10.60;99.90;;;;;;8403074;28;20026;-70
2023/04/28 23:28:30;;;;;;;;;;;10.60;99.90;;;;;;8402194;28;19924;-70
2023/04/28 23:32:32;;;;;;;;;;;10.70;99.90;;;;;;8391023;28;19933;-71